Time;durP1;ratioP1;P1;durP2;ratioP2;P2;SDS_P1;SDS_P2;PMS_P1;PMS_P2;Temp;Humidity;BMP_temperature;BMP_pressure;BME280_temperature;BME280_humidity;BME280_pressure;Samples;Min_cycle;Max_cycle;Signal;HPM_P1;HPM_P2
2022/07/08 00:00:32;;;;;;;2.17;0.98;;;;;;;26.81;39.71;102790.16;5030140;28;20104;-66
2022/07/08 00:02:58;;;;;;;3.30;0.90;;;;;;;26.86;39.66;102790.03;5030694;28;20413;-66
2022/07/08 00:05:23;;;;;;;2.72;1.10;;;;;;;26.78;39.74;102792.88;5030904;28;20061;-66
2022/07/08 00:07:49;;;;;;;1.92;0.90;;;;;;;26.79;39.67;102793.75;5033378;28;20038;-66
2022/07/08 00:10:14;;;;;;;2.83;1.17;;;;;;;26.80;39.72;102792.84;5030707;28;20173;-66
2022/07/08 00:12:40;;;;;;;2.42;0.98;;;;;;;26.79;39.60;102793.75;5030152;28;20426;-66
2022/07/08 00:15:06;;;;;;;3.08;1.20;;;;;;;26.76;39.77;102802.78;5030678;28;20033;-66
2022/07/08 00:17:32;;;;;;;1.95;1.00;;;;;;;26.75;39.62;102797.44;5036037;28;20384;-66
2022/07/08 00:19:57;;;;;;;3.40;1.30;;;;;;;26.73;39.67;102796.59;5050368;28;20040;-66
2022/07/08 00:22:23;;;;;;;2.78;1.20;;;;;;;26.75;39.71;102792.09;5049844;28;20466;-66
2022/07/08 00:24:48;;;;;;;3.33;1.10;;;;;;;26.73;39.82;102794.78;5050547;28;20565;-66
2022/07/08 00:27:14;;;;;;;2.75;1.15;;;;;;;26.72;39.65;102800.19;5050653;28;20121;-66
2022/07/08 00:29:39;;;;;;;2.33;1.00;;;;;;;26.71;39.78;102806.47;5048636;28;20344;-66
2022/07/08 00:32:05;;;;;;;2.35;1.02;;;;;;;26.69;39.78;102806.50;5030233;28;20072;-66
2022/07/08 00:34:31;;;;;;;2.50;1.05;;;;;;;26.71;39.63;102812.72;5030384;28;20037;-67
2022/07/08 00:36:56;;;;;;;2.50;1.10;;;;;;;26.71;39.70;102812.72;5029941;28;20077;-66
2022/07/08 00:39:21;;;;;;;2.95;1.08;;;;;;;26.70;39.68;102810.06;5039005;28;20056;-66
2022/07/08 00:41:47;;;;;;;2.47;0.93;;;;;;;26.67;39.79;102811.00;5050120;28;20036;-66
2022/07/08 00:44:12;;;;;;;2.33;0.90;;;;;;;26.67;39.79;102811.88;5050106;28;20033;-66
2022/07/08 00:46:37;;;;;;;2.88;1.08;;;;;;;26.64;39.82;102811.09;5049033;28;20029;-66
2022/07/08 00:49:03;;;;;;;2.20;0.95;;;;;;;26.63;39.83;102802.16;5049832;28;20049;-66
2022/07/08 00:51:29;;;;;;;2.08;0.90;;;;;;;26.67;39.76;102802.97;5044424;28;20029;-66
2022/07/08 00:53:55;;;;;;;2.47;1.10;;;;;;;26.65;39.77;102804.81;5029782;28;20029;-66
2022/07/08 00:56:21;;;;;;;3.38;1.05;;;;;;;26.68;39.63;102802.06;5028096;28;20029;-66
2022/07/08 00:58:48;;;;;;;2.53;0.95;;;;;;;26.62;39.84;102799.53;5030268;28;20034;-66
2022/07/08 01:01:15;;;;;;;2.05;1.00;;;;;;;26.63;39.65;102802.16;5029859;28;20026;-66
2022/07/08 01:03:41;;;;;;;1.77;1.00;;;;;;;26.62;39.65;102803.09;5029162;28;20468;-66
2022/07/08 01:06:07;;;;;;;2.15;0.90;;;;;;;26.63;39.76;102803.97;5027992;28;20546;-66
2022/07/08 01:08:33;;;;;;;1.70;0.90;;;;;;;26.62;39.74;102802.19;5045348;28;20033;-66
2022/07/08 01:10:58;;;;;;;1.80;1.00;;;;;;;26.62;39.63;102807.56;5049407;28;20467;-66
2022/07/08 01:13:24;;;;;;;2.10;0.90;;;;;;;26.60;40.00;102814.72;5049221;28;20074;-66
2022/07/08 01:15:50;;;;;;;2.38;1.00;;;;;;;26.59;40.00;102808.47;5049602;28;20052;-66
2022/07/08 01:18:26;;;;;;;1.88;1.00;;;;;;;26.57;39.93;102810.34;5048641;28;20075;-66
2022/07/08 01:20:52;;;;;;;1.67;0.88;;;;;;;26.56;39.93;102800.53;5049688;28;20029;-66
2022/07/08 01:23:18;;;;;;;2.92;0.90;;;;;;;26.58;39.82;102801.41;5049343;28;20344;-66
2022/07/08 01:25:44;;;;;;;2.58;1.00;;;;;;;26.57;40.05;102798.75;5048825;28;20029;-66
2022/07/08 01:28:10;;;;;;;1.73;0.93;;;;;;;26.56;39.86;102791.63;5044947;28;20048;-66
2022/07/08 01:30:35;;;;;;;1.83;0.98;;;;;;;26.55;39.86;102798.78;5029495;28;20444;-66
2022/07/08 01:33:01;;;;;;;2.25;0.98;;;;;;;26.54;39.96;102790.78;5029008;28;20029;-66
2022/07/08 01:35:26;;;;;;;2.20;1.00;;;;;;;26.52;39.76;102789.97;5028683;28;20029;-66
2022/07/08 01:37:51;;;;;;;1.95;1.00;;;;;;;26.55;39.75;102792.53;5029384;28;20033;-66
2022/07/08 01:40:16;;;;;;;3.00;0.90;;;;;;;26.52;40.07;102788.16;5029131;28;20428;-66
2022/07/08 01:42:42;;;;;;;2.88;1.13;;;;;;;26.51;39.95;102788.19;5029109;28;20076;-66
2022/07/08 01:45:08;;;;;;;2.55;1.00;;;;;;;26.53;39.76;102789.06;5029485;28;20033;-66
2022/07/08 01:47:33;;;;;;;2.08;0.90;;;;;;;26.54;39.79;102794.34;5028668;28;20025;-66
2022/07/08 01:49:58;;;;;;;1.90;0.80;;;;;;;26.49;39.90;102785.53;5028825;28;20080;-66
2022/07/08 01:52:24;;;;;;;3.30;1.00;;;;;;;26.53;39.85;102786.38;5042412;28;20531;-66
2022/07/08 01:54:50;;;;;;;1.88;0.98;;;;;;;26.53;39.83;102778.34;5039195;28;20037;-66
2022/07/08 01:57:18;;;;;;;2.13;1.00;;;;;;;26.52;39.87;102782.81;5038304;28;20037;-66
2022/07/08 01:59:46;;;;;;;2.75;0.90;;;;;;;26.49;39.96;102780.19;5026883;28;20277;-66
2022/07/08 02:02:13;;;;;;;1.48;0.90;;;;;;;26.51;39.98;102789.06;5041430;28;20063;-66
2022/07/08 02:04:38;;;;;;;1.77;0.80;;;;;;;26.51;39.82;102785.53;5048723;28;20017;-66
2022/07/08 02:07:04;;;;;;;1.95;0.88;;;;;;;26.48;39.95;102789.13;5042871;28;20083;-66
2022/07/08 02:09:30;;;;;;;1.77;1.00;;;;;;;26.45;40.15;102788.34;5028856;28;20029;-66
2022/07/08 02:14:39;;;;;;;;;;;;;;;26.50;39.80;102786.44;5029539;28;20040;-66
2022/07/08 02:17:05;;;;;;;2.13;1.00;;;;;;;26.52;39.96;102784.59;5027559;28;20008;-67
2022/07/08 02:19:31;;;;;;;1.95;1.00;;;;;;;26.47;39.91;102784.69;5028615;28;20284;-66
2022/07/08 02:21:56;;;;;;;1.27;0.82;;;;;;;26.45;39.91;102786.53;5028529;28;20028;-66
2022/07/08 02:24:22;;;;;;;1.60;0.90;;;;;;;26.44;39.90;102790.13;5027558;28;20045;-66
2022/07/08 02:26:47;;;;;;;2.72;0.90;;;;;;;26.45;40.03;102791.88;5028921;28;20087;-66
2022/07/08 02:29:13;;;;;;;2.67;0.90;;;;;;;26.45;39.88;102786.53;5028761;28;20057;-66
2022/07/08 02:31:38;;;;;;;1.52;0.80;;;;;;;26.41;39.94;102784.81;5028046;28;20041;-66
2022/07/08 02:34:04;;;;;;;2.42;0.98;;;;;;;26.43;39.68;102785.69;5046313;28;20036;-66
2022/07/08 02:36:29;;;;;;;1.75;0.90;;;;;;;26.39;39.63;102786.69;5037878;28;20521;-66
2022/07/08 02:38:54;;;;;;;1.33;0.77;;;;;;;26.44;39.79;102791.91;5028320;28;20033;-66
2022/07/08 02:41:20;;;;;;;1.63;0.82;;;;;;;26.45;39.76;102789.22;5028694;28;20021;-66
2022/07/08 02:43:45;;;;;;;1.83;1.00;;;;;;;26.44;39.72;102795.47;5027587;28;20045;-66
2022/07/08 02:46:10;;;;;;;2.55;1.00;;;;;;;26.44;39.89;102787.44;5042768;28;20051;-66
2022/07/08 02:48:36;;;;;;;2.03;0.80;;;;;;;26.44;39.92;102795.47;5048237;28;20056;-66
2022/07/08 02:51:02;;;;;;;2.10;0.90;;;;;;;26.42;39.84;102797.28;5047760;28;20774;-66
2022/07/08 02:53:28;;;;;;;2.10;1.00;;;;;;;26.44;39.73;102802.63;5033511;28;20037;-66
2022/07/08 02:55:53;;;;;;;2.20;1.00;;;;;;;26.42;39.86;102797.28;5028455;28;20037;-66
2022/07/08 02:58:18;;;;;;;1.60;0.80;;;;;;;26.43;39.89;102804.41;5027204;28;20051;-66
2022/07/08 03:00:44;;;;;;;2.15;1.00;;;;;;;26.40;39.80;102800.94;5028527;28;20138;-66
2022/07/08 03:03:09;;;;;;;1.98;0.90;;;;;;;26.39;39.88;102810.75;5029507;28;20084;-66
2022/07/08 03:05:35;;;;;;;2.00;0.80;;;;;;;26.37;39.88;102806.34;5030423;28;20037;-66
2022/07/08 03:08:00;;;;;;;2.05;0.93;;;;;;;26.36;39.71;102807.25;5041017;28;20046;-66
2022/07/08 03:10:25;;;;;;;1.83;0.80;;;;;;;26.35;39.91;102809.03;5036050;28;20090;-66
2022/07/08 03:12:51;;;;;;;1.52;0.70;;;;;;;26.34;40.02;102811.75;5051753;28;20028;-66
2022/07/08 03:15:16;;;;;;;3.47;1.00;;;;;;;26.33;40.11;102812.69;5044972;28;20083;-66
2022/07/08 03:17:42;;;;;;;2.00;1.00;;;;;;;26.33;40.02;102813.56;5031395;28;20075;-66
2022/07/08 03:20:07;;;;;;;1.50;0.80;;;;;;;26.33;40.05;102813.56;5051294;28;20040;-66
2022/07/08 03:22:34;;;;;;;1.73;0.88;;;;;;;26.29;40.06;102817.19;5051558;28;20040;-66
2022/07/08 03:24:59;;;;;;;1.73;0.80;;;;;;;26.31;39.99;102811.81;5051453;28;20032;-66
2022/07/08 03:27:25;;;;;;;1.25;0.70;;;;;;;26.31;39.88;102812.69;5042658;28;20083;-67
2022/07/08 03:29:50;;;;;;;1.40;0.80;;;;;;;26.28;39.90;102820.81;5029810;28;20033;-66
2022/07/08 03:32:15;;;;;;;1.67;0.98;;;;;;;26.30;39.80;102818.94;5031180;28;20644;-66
2022/07/08 03:34:41;;;;;;;1.60;0.90;;;;;;;26.30;39.99;102818.94;5039260;28;20037;-66
2022/07/08 03:37:06;;;;;;;2.25;0.73;;;;;;;26.31;39.91;102817.16;5051249;28;20033;-66
2022/07/08 03:39:31;;;;;;;2.05;1.00;;;;;;;26.29;39.93;102819.88;5050192;28;20115;-66
2022/07/08 03:41:57;;;;;;;1.80;0.88;;;;;;;26.29;40.00;102827.03;5050083;28;20075;-66
2022/07/08 03:44:22;;;;;;;1.92;1.00;;;;;;;26.32;39.88;102817.13;5051110;28;20451;-66
2022/07/08 03:46:47;;;;;;;2.63;0.98;;;;;;;26.31;39.79;102820.72;5035137;28;20040;-66
2022/07/08 03:49:13;;;;;;;2.85;0.90;;;;;;;26.30;39.81;102821.63;5038767;28;20068;-66
2022/07/08 03:51:38;;;;;;;1.33;0.73;;;;;;;26.30;39.91;102826.97;5047644;28;20032;-66
2022/07/08 03:54:04;;;;;;;1.95;0.90;;;;;;;26.27;39.88;102823.50;5031037;28;20061;-66
2022/07/08 03:56:29;;;;;;;2.28;0.90;;;;;;;26.26;39.91;102830.63;5029754;28;20137;-66
2022/07/08 03:58:54;;;;;;;2.15;0.93;;;;;;;26.25;40.06;102834.22;5034382;28;20041;-66
2022/07/08 04:01:20;;;;;;;2.10;0.75;;;;;;;26.23;40.00;102836.00;5041361;28;20040;-66
2022/07/08 04:03:45;;;;;;;1.45;0.70;;;;;;;26.24;39.87;102841.34;5031228;28;20033;-66
2022/07/08 04:06:10;;;;;;;2.05;0.95;;;;;;;26.22;40.02;102834.25;5030537;28;20036;-66
2022/07/08 04:08:36;;;;;;;2.03;0.88;;;;;;;26.22;40.07;102837.81;5041685;28;20021;-66
2022/07/08 04:11:01;;;;;;;1.88;0.80;;;;;;;26.25;39.88;102842.25;5040730;28;20060;-66
2022/07/08 04:13:29;;;;;;;2.15;0.80;;;;;;;26.23;39.86;102828.91;5030387;28;20372;-66
2022/07/08 04:15:55;;;;;;;2.17;1.00;;;;;;;26.21;39.92;102838.72;5030520;28;20450;-66
2022/07/08 04:18:21;;;;;;;1.90;0.90;;;;;;;26.23;39.87;102841.34;5039214;28;20029;-66
2022/07/08 04:20:47;;;;;;;1.38;0.80;;;;;;;26.17;39.97;102847.69;5036719;28;20047;-66
2022/07/08 04:23:12;;;;;;;2.03;1.00;;;;;;;26.18;40.05;102851.25;5030826;28;20116;-66
2022/07/08 04:25:38;;;;;;;1.58;0.90;;;;;;;26.15;40.19;102851.34;5038117;28;20029;-66
2022/07/08 04:28:03;;;;;;;1.00;0.75;;;;;;;26.15;40.04;102848.66;5034307;28;20563;-66
2022/07/08 04:30:29;;;;;;;2.22;0.80;;;;;;;26.15;40.13;102854.00;5044392;28;20099;-66
2022/07/08 04:32:57;;;;;;;1.67;0.85;;;;;;;26.15;40.04;102857.56;5038189;28;20937;-66
2022/07/08 04:35:22;;;;;;;1.80;0.88;;;;;;;26.16;39.89;102851.31;5039364;28;20140;-66
2022/07/08 04:37:48;;;;;;;1.35;0.75;;;;;;;26.15;40.07;102848.66;5031915;28;20113;-66
2022/07/08 04:40:15;;;;;;;1.83;0.70;;;;;;;26.16;39.96;102853.09;5050221;28;20386;-66
2022/07/08 04:42:41;;;;;;;1.95;0.90;;;;;;;26.15;40.12;102860.25;5036267;28;20035;-65
2022/07/08 04:45:07;;;;;;;2.05;0.90;;;;;;;26.14;39.98;102862.94;5030110;28;20034;-66
2022/07/08 04:47:32;;;;;;;1.58;0.90;;;;;;;26.14;39.96;102858.47;5037811;28;20075;-66
2022/07/08 04:49:58;;;;;;;1.40;0.80;;;;;;;26.16;39.93;102863.81;5034314;28;20057;-66
2022/07/08 04:52:23;;;;;;;1.90;0.80;;;;;;;26.16;40.04;102859.34;5049644;28;20020;-66
2022/07/08 04:54:48;;;;;;;1.52;0.80;;;;;;;26.16;40.12;102869.16;5044435;28;20040;-66
2022/07/08 04:57:14;;;;;;;1.67;0.90;;;;;;;26.18;39.83;102864.63;5038625;28;20060;-66
2022/07/08 04:59:39;;;;;;;2.35;0.77;;;;;;;26.17;39.87;102862.88;5030114;28;20120;-66
2022/07/08 05:02:04;;;;;;;0.85;0.70;;;;;;;26.17;39.91;102862.88;5035555;28;20095;-66
2022/07/08 05:04:30;;;;;;;1.50;0.80;;;;;;;26.17;39.66;102861.06;5040467;28;20061;-66
2022/07/08 05:06:55;;;;;;;1.08;0.70;;;;;;;26.16;39.84;102863.81;5036086;28;20087;-66
2022/07/08 05:09:21;;;;;;;1.55;0.80;;;;;;;26.15;39.94;102862.91;5028503;28;20031;-66
2022/07/08 05:11:47;;;;;;;1.80;0.90;;;;;;;26.16;39.83;102856.66;5035392;28;20033;-66
2022/07/08 05:14:13;;;;;;;1.40;0.80;;;;;;;26.17;39.76;102860.19;5042155;28;20423;-67
2022/07/08 05:16:43;;;;;;;1.15;0.70;;;;;;;26.18;39.79;102854.81;5036929;28;20112;-66
2022/07/08 05:19:09;;;;;;;1.48;0.80;;;;;;;26.17;39.76;102858.41;5027160;28;20083;-68
2022/07/08 05:21:38;;;;;;;3.10;0.70;;;;;;;26.20;40.02;102860.16;5034216;28;20041;-67
2022/07/08 05:24:07;;;;;;;3.17;0.98;;;;;;;26.18;39.79;102859.28;5033313;28;20499;-67
2022/07/08 05:26:33;;;;;;;1.50;0.80;;;;;;;26.18;39.94;102857.50;5037850;28;20037;-67
2022/07/08 05:28:58;;;;;;;2.55;0.80;;;;;;;26.17;39.93;102861.06;5038402;28;20047;-67
2022/07/08 05:31:24;;;;;;;1.45;0.77;;;;;;;26.18;39.88;102854.81;5048982;28;20028;-67
2022/07/08 05:33:49;;;;;;;1.90;0.80;;;;;;;26.19;40.00;102856.59;5034377;28;20073;-67
2022/07/08 05:36:14;;;;;;;1.20;0.80;;;;;;;26.22;39.90;102861.00;5038751;28;20390;-66
2022/07/08 05:38:40;;;;;;;2.42;0.90;;;;;;;26.22;39.80;102855.66;5029014;28;20033;-67
2022/07/08 05:41:05;;;;;;;0.77;0.60;;;;;;;26.24;39.87;102859.19;5040770;28;20107;-66
2022/07/08 05:43:30;;;;;;;1.52;0.77;;;;;;;26.24;39.89;102861.88;5029443;28;20052;-66
2022/07/08 05:45:56;;;;;;;2.83;0.90;;;;;;;26.28;39.86;102863.59;5029546;28;20119;-67
2022/07/08 05:48:24;;;;;;;1.30;0.70;;;;;;;26.31;39.86;102862.63;5033060;28;20029;-67
2022/07/08 05:50:50;;;;;;;3.97;1.00;;;;;;;26.33;39.66;102871.50;5040602;28;20040;-66
2022/07/08 05:53:16;;;;;;;2.70;0.80;;;;;;;26.36;39.75;102872.31;5035566;28;20029;-66
2022/07/08 05:55:43;;;;;;;2.55;0.80;;;;;;;26.39;39.64;102874.06;5038029;28;20364;-67
2022/07/08 05:58:09;;;;;;;2.22;0.90;;;;;;;26.51;39.52;102879.16;5043093;28;20079;-67
2022/07/08 06:00:34;;;;;;;3.58;0.98;;;;;;;26.61;39.43;102878.03;5037371;28;20060;-66
2022/07/08 06:02:59;;;;;;;1.52;0.80;;;;;;;26.80;39.31;102876.69;5039906;28;20487;-66
2022/07/08 06:05:25;;;;;;;1.70;0.90;;;;;;;27.09;38.69;102884.09;5030517;28;20137;-67
2022/07/08 06:07:50;;;;;;;2.75;0.85;;;;;;;27.44;37.88;102876.09;5031226;28;20041;-67
2022/07/08 06:10:15;;;;;;;1.58;0.85;;;;;;;27.16;38.37;102877.66;5032992;28;20108;-66
2022/07/08 06:12:41;;;;;;;1.55;0.85;;;;;;;27.00;39.29;102877.16;5030741;28;20041;-67
2022/07/08 06:15:07;;;;;;;2.60;1.00;;;;;;;26.85;39.63;102871.22;5030369;28;20064;-67
2022/07/08 06:17:32;;;;;;;3.22;1.00;;;;;;;26.86;39.76;102881.91;5037564;28;20395;-67
2022/07/08 06:19:57;;;;;;;7.00;0.80;;;;;;;27.00;39.71;102871.81;5036367;28;20472;-67
2022/07/08 06:22:23;;;;;;;2.35;0.80;;;;;;;26.93;40.14;102872.88;5036049;28;20041;-65
2022/07/08 06:24:49;;;;;;;5.25;1.00;;;;;;;26.73;40.68;102880.44;5047276;28;20033;-65
2022/07/08 06:27:14;;;;;;;11.27;1.00;;;;;;;26.65;40.94;102877.91;5031881;28;20501;-66
2022/07/08 06:29:39;;;;;;;3.75;1.10;;;;;;;26.62;41.10;102882.47;5035009;28;20041;-66
2022/07/08 06:32:05;;;;;;;5.35;0.95;;;;;;;26.57;41.37;102887.91;5044763;28;20036;-66
2022/07/08 06:34:30;;;;;;;4.43;0.95;;;;;;;26.59;41.46;102883.41;5043074;28;20047;-70
2022/07/08 06:36:56;;;;;;;3.85;0.90;;;;;;;26.56;41.44;102894.19;5032699;28;20060;-65
2022/07/08 06:39:21;;;;;;;3.72;0.90;;;;;;;26.58;41.63;102888.81;5027688;28;20025;-65
2022/07/08 06:41:46;;;;;;;7.97;1.00;;;;;;;26.56;41.47;102888.81;5032566;28;20556;-64
2022/07/08 06:44:12;;;;;;;7.28;0.90;;;;;;;26.55;41.22;102895.09;5048855;28;20605;-63
2022/07/08 06:46:37;;;;;;;7.05;1.05;;;;;;;26.56;41.19;102895.97;5041535;28;20526;-65
2022/07/08 06:49:02;;;;;;;4.55;1.20;;;;;;;26.55;41.17;102891.53;5034990;28;20106;-64
2022/07/08 06:51:28;;;;;;;3.53;1.00;;;;;;;26.62;41.35;102895.84;5043480;28;20061;-64
2022/07/08 06:56:37;;;;;;;3.92;1.10;;;;;;;26.71;41.17;102903.69;5040111;28;20048;-64
2022/07/08 06:59:05;;;;;;;4.45;1.00;;;;;;;26.72;41.10;102896.50;5048589;28;20037;-64
2022/07/08 07:01:31;;;;;;;4.40;0.90;;;;;;;26.69;40.67;102897.47;5036163;28;20572;-64
2022/07/08 07:03:56;;;;;;;3.47;0.90;;;;;;;26.69;41.13;102896.59;5043285;28;20059;-65
2022/07/08 07:06:21;;;;;;;3.42;1.08;;;;;;;26.67;41.12;102897.50;5045867;28;20403;-66
2022/07/08 07:08:47;;;;;;;8.93;1.38;;;;;;;26.63;41.46;102895.81;5032911;28;20036;-69
2022/07/08 07:11:13;;;;;;;8.27;1.13;;;;;;;26.64;42.35;102889.56;5034775;28;20037;-69
2022/07/08 07:13:38;;;;;;;5.07;0.90;;;;;;;26.63;41.72;102897.59;5039511;28;20033;-71
2022/07/08 07:16:04;;;;;;;12.27;1.30;;;;;;;26.79;41.49;102887.44;5033559;28;20129;-70
2022/07/08 07:18:29;;;;;;;3.53;1.10;;;;;;;26.83;42.06;102899.84;5031121;28;20029;-70
2022/07/08 07:20:55;;;;;;;10.55;1.20;;;;;;;26.82;41.25;102898.97;5030414;28;20083;-70
2022/07/08 07:23:20;;;;;;;5.30;1.10;;;;;;;26.96;41.43;102904.03;5030107;28;20472;-70
2022/07/08 07:25:45;;;;;;;8.68;1.20;;;;;;;27.00;40.46;102895.91;5030807;28;20041;-72
2022/07/08 07:28:11;;;;;;;5.85;1.20;;;;;;;27.13;40.50;102895.63;5030803;28;20113;-71
2022/07/08 07:30:36;;;;;;;8.07;1.35;;;;;;;27.10;40.54;102904.59;5031444;28;20067;-71
2022/07/08 07:33:01;;;;;;;4.70;1.35;;;;;;;27.05;40.51;102898.47;5031026;28;20033;-71
2022/07/08 07:35:27;;;;;;;3.50;1.20;;;;;;;27.21;40.58;102898.97;5030961;28;20044;-72
2022/07/08 07:37:52;;;;;;;5.00;1.30;;;;;;;27.30;40.02;102896.09;5029760;28;20037;-72
2022/07/08 07:40:17;;;;;;;8.30;1.52;;;;;;;27.26;40.51;102902.44;5028166;28;20112;-72
2022/07/08 07:42:43;;;;;;;5.53;1.45;;;;;;;27.29;40.04;102900.56;5027569;28;20083;-72
2022/07/08 07:45:08;;;;;;;8.80;1.40;;;;;;;27.35;40.17;102910.25;5029996;28;20029;-70
2022/07/08 07:47:34;;;;;;;8.38;1.35;;;;;;;27.45;39.71;102906.41;5030544;28;20369;-72
2022/07/08 07:49:59;;;;;;;7.82;1.30;;;;;;;27.32;40.29;102905.84;5028955;28;20053;-72
2022/07/08 07:52:25;;;;;;;7.68;1.30;;;;;;;27.36;40.00;102906.66;5030700;28;20099;-72
2022/07/08 07:54:50;;;;;;;5.13;1.23;;;;;;;27.43;39.99;102913.63;5038606;28;20075;-72
2022/07/08 07:57:16;;;;;;;3.88;1.17;;;;;;;27.41;39.96;102918.13;5049084;28;20033;-72
2022/07/08 07:59:41;;;;;;;4.78;1.40;;;;;;;27.29;40.13;102923.78;5041513;28;20376;-72
2022/07/08 08:02:07;;;;;;;3.83;1.30;;;;;;;27.36;39.90;102928.09;5050657;28;20035;-72
2022/07/08 08:04:33;;;;;;;4.28;1.25;;;;;;;27.30;40.01;102925.56;5048803;28;20025;-72
2022/07/08 08:06:58;;;;;;;3.92;1.10;;;;;;;27.33;39.91;102920.09;5044970;28;20048;-72
2022/07/08 08:09:24;;;;;;;5.00;1.30;;;;;;;27.33;39.87;102925.47;5029917;28;20083;-72
2022/07/08 08:11:49;;;;;;;3.65;1.40;;;;;;;27.32;40.01;102929.09;5030409;28;20041;-72
2022/07/08 08:14:14;;;;;;;6.70;1.30;;;;;;;27.44;39.52;102920.75;5030679;28;20102;-72
2022/07/08 08:16:40;;;;;;;5.38;1.30;;;;;;;27.39;39.63;102923.50;5029301;28;20086;-72
2022/07/08 08:19:05;;;;;;;6.88;1.20;;;;;;;27.48;39.62;102924.22;5030315;28;20036;-72
2022/07/08 08:21:31;;;;;;;5.13;1.20;;;;;;;27.44;39.27;102920.75;5029372;28;20538;-72
2022/07/08 08:23:56;;;;;;;5.35;1.25;;;;;;;27.42;39.35;102922.56;5029570;28;20029;-72
2022/07/08 08:26:22;;;;;;;5.72;1.30;;;;;;;27.40;39.59;102930.63;5030437;28;20026;-72
2022/07/08 08:28:48;;;;;;;2.58;0.98;;;;;;;27.40;39.82;102924.41;5030215;28;20027;-72
2022/07/08 08:31:14;;;;;;;3.53;1.25;;;;;;;27.33;39.60;102923.66;5029831;28;20032;-72
2022/07/08 08:33:39;;;;;;;4.32;1.30;;;;;;;27.31;39.61;102920.16;5030084;28;20033;-72
2022/07/08 08:36:05;;;;;;;3.58;1.00;;;;;;;27.30;39.75;102929.09;5049848;28;20111;-72
2022/07/08 08:38:30;;;;;;;2.78;1.15;;;;;;;27.33;39.71;102930.81;5049907;28;20679;-72
2022/07/08 08:41:01;;;;;;;3.38;0.93;;;;;;;27.23;39.96;102940.88;5050085;28;20055;-72
2022/07/08 08:43:27;;;;;;;2.67;1.10;;;;;;;27.30;39.97;102938.94;5049168;28;20037;-72
2022/07/08 08:45:53;;;;;;;3.05;1.00;;;;;;;27.33;39.58;102942.41;5038425;28;20045;-71
2022/07/08 08:48:23;;;;;;;3.75;1.10;;;;;;;27.28;39.65;102940.75;5028490;28;20079;-72
2022/07/08 08:50:53;;;;;;;3.75;1.20;;;;;;;27.30;39.82;102938.94;5029834;28;20038;-72
2022/07/08 08:53:27;;;;;;;3.53;1.10;;;;;;;27.32;39.52;102942.47;5046185;28;20035;-72
2022/07/08 08:55:54;;;;;;;4.05;0.95;;;;;;;27.30;39.76;102937.16;5031499;28;20628;-72
2022/07/08 08:58:20;;;;;;;3.33;1.13;;;;;;;27.34;39.69;102928.09;5029728;28;20048;-72
2022/07/08 09:00:46;;;;;;;2.50;1.00;;;;;;;27.31;39.62;102938.03;5028647;28;20557;-72
2022/07/08 09:03:12;;;;;;;2.92;1.15;;;;;;;27.31;39.74;102930.88;5029870;28;20029;-72
2022/07/08 09:05:37;;;;;;;2.38;1.08;;;;;;;27.29;39.64;102932.69;5030137;28;20018;-72
2022/07/08 09:08:03;;;;;;;16.60;1.20;;;;;;;27.29;39.60;102935.38;5034268;28;20033;-72
2022/07/08 09:10:28;;;;;;;3.05;1.00;;;;;;;27.29;39.66;102931.81;5029588;28;20488;-72
2022/07/08 09:13:10;;;;;;;4.13;1.00;;;;;;;27.23;39.44;102931.97;5029462;28;20021;-72
2022/07/08 09:15:41;;;;;;;5.45;1.13;;;;;;;27.22;39.78;102931.09;5029046;28;20025;-75
2022/07/08 09:18:10;;;;;;;2.83;1.00;;;;;;;27.16;39.85;102930.34;5025168;28;20045;-73
2022/07/08 09:20:55;;;;;;;3.58;1.20;;;;;;;27.19;39.81;102922.25;5032439;28;20053;-71
2022/07/08 09:23:22;;;;;;;9.05;1.30;;;;;;;27.20;39.88;102926.69;5025991;28;20456;-71
2022/07/08 09:25:51;;;;;;;7.55;1.20;;;;;;;27.19;39.80;102917.78;5028751;28;20033;-71
2022/07/08 09:28:27;;;;;;;4.22;1.10;;;;;;;27.25;39.92;102922.09;5029004;28;20049;-72
2022/07/08 09:30:57;;;;;;;2.88;1.10;;;;;;;27.25;40.08;102917.63;5045596;28;20117;-71
2022/07/08 09:33:26;;;;;;;6.50;1.20;;;;;;;27.24;40.04;102918.53;5033188;28;20116;-71
2022/07/08 09:35:53;;;;;;;3.47;1.20;;;;;;;27.19;40.43;102922.25;5028656;28;20115;-72
2022/07/08 09:38:19;;;;;;;5.55;1.20;;;;;;;27.20;40.36;102915.97;5028691;28;20029;-72
2022/07/08 09:40:59;;;;;;;4.72;1.40;;;;;;;27.21;40.70;102923.06;5028320;28;20240;-71
2022/07/08 09:43:26;;;;;;;3.58;1.10;;;;;;;27.15;40.47;102917.88;5028808;28;20021;-72
2022/07/08 09:45:52;;;;;;;3.72;1.15;;;;;;;27.11;40.71;102922.41;5027737;28;20044;-71
2022/07/08 09:48:18;;;;;;;8.00;1.20;;;;;;;27.14;41.07;102921.47;5047694;28;20029;-71
2022/07/08 09:50:48;;;;;;;5.07;1.13;;;;;;;27.05;40.73;102919.88;5048146;28;20399;-73
2022/07/08 09:53:22;;;;;;;4.20;1.23;;;;;;;27.17;40.82;102924.06;5038795;28;20470;-70
2022/07/08 09:55:51;;;;;;;;;;;;;;;27.30;40.45;102923.75;5028745;28;20036;-70
2022/07/08 09:58:21;;;;;;;5.82;1.20;;;;;;;27.28;40.44;102927.38;5028061;28;19913;-70
2022/07/08 10:00:48;;;;;;;2.95;1.17;;;;;;;27.37;40.37;102933.41;5027997;28;20136;-71
2022/07/08 10:03:14;;;;;;;6.50;1.30;;;;;;;27.36;40.38;102933.44;5028209;28;20514;-73
2022/07/08 10:05:41;;;;;;;5.60;1.20;;;;;;;27.45;40.01;102926.03;5026945;28;20029;-71
2022/07/08 10:08:08;;;;;;;6.82;1.30;;;;;;;27.42;40.31;102930.59;5040496;28;20415;-69
2022/07/08 10:10:34;;;;;;;9.00;1.50;;;;;;;27.46;39.83;102919.78;5034346;28;20028;-69
2022/07/08 10:13:00;;;;;;;5.15;1.50;;;;;;;27.42;39.91;102933.28;5047438;28;20025;-66
2022/07/08 10:15:27;;;;;;;7.20;1.55;;;;;;;27.45;39.70;102926.03;5033009;28;20418;-70
2022/07/08 10:17:54;;;;;;;7.78;1.55;;;;;;;27.51;39.74;102926.84;5048695;28;20078;-68
2022/07/08 10:20:22;;;;;;;6.47;1.60;;;;;;;27.57;39.49;102934.75;5051096;28;20056;-68
2022/07/08 10:22:57;;;;;;;5.90;1.40;;;;;;;27.61;39.38;102934.63;5048423;28;20017;-68
2022/07/08 10:25:24;;;;;;;8.38;1.50;;;;;;;27.56;39.60;102930.31;5032617;28;20037;-69
2022/07/08 10:27:50;;;;;;;10.45;1.60;;;;;;;27.63;39.34;102939.97;5032226;28;20091;-68
2022/07/08 10:30:21;;;;;;;7.97;1.75;;;;;;;27.62;39.62;102938.19;5032366;28;20517;-69
2022/07/08 10:32:48;;;;;;;5.20;1.30;;;;;;;27.57;39.49;102937.44;5032213;28;20034;-69
2022/07/08 10:35:21;;;;;;;8.05;1.52;;;;;;;27.58;39.55;102937.38;5045926;28;20078;-69
2022/07/08 10:37:55;;;;;;;4.70;1.70;;;;;;;27.60;39.63;102934.66;5051738;28;20032;-69
2022/07/08 10:40:42;;;;;;;4.05;1.48;;;;;;;27.65;39.53;102938.09;5030398;28;20061;-69
2022/07/08 10:43:19;;;;;;;3.80;1.52;;;;;;;27.64;39.60;102939.00;5031492;28;20025;-67
2022/07/08 10:46:01;;;;;;;5.57;1.38;;;;;;;27.73;39.41;102931.63;5031871;28;20080;-68
2022/07/08 10:48:28;;;;;;;7.70;1.70;;;;;;;27.76;39.53;102939.59;5027671;28;20036;-68
2022/07/08 10:50:54;;;;;;;9.18;1.67;;;;;;;27.85;39.13;102933.13;5045816;28;20403;-69
2022/07/08 10:53:20;;;;;;;7.00;1.73;;;;;;;27.86;39.25;102942.94;5044138;28;20098;-68
2022/07/08 10:55:48;;;;;;;8.85;1.58;;;;;;;27.84;39.33;102939.41;5044552;28;20087;-69
2022/07/08 10:58:13;;;;;;;10.15;1.77;;;;;;;27.85;39.49;102941.16;5040424;28;20029;-69
2022/07/08 11:00:39;;;;;;;10.13;1.58;;;;;;;27.82;39.56;102939.44;5045900;28;20038;-69
2022/07/08 11:03:08;;;;;;;9.88;1.50;;;;;;;27.82;39.27;102938.53;5033501;28;20042;-69
2022/07/08 11:05:35;;;;;;;7.05;1.70;;;;;;;27.82;39.58;102939.44;5044644;28;20498;-69
2022/07/08 11:08:18;;;;;;;9.18;1.40;;;;;;;27.79;39.53;102936.84;5039414;28;20390;-69
2022/07/08 11:10:44;;;;;;;5.22;1.50;;;;;;;27.78;39.56;102940.44;5050809;28;20029;-68
2022/07/08 11:13:10;;;;;;;6.80;1.63;;;;;;;27.78;39.69;102934.19;5038032;28;20041;-68
2022/07/08 11:15:36;;;;;;;8.07;1.80;;;;;;;27.76;39.85;102931.53;5040787;28;20487;-69
2022/07/08 11:18:02;;;;;;;6.47;1.45;;;;;;;27.66;40.25;102930.03;5051810;28;20037;-66
2022/07/08 11:20:30;;;;;;;8.93;1.55;;;;;;;27.53;40.36;102925.91;5032154;28;20091;-68
2022/07/08 11:22:56;;;;;;;14.43;1.80;;;;;;;27.62;40.24;102924.78;5029903;28;20033;-68
2022/07/08 11:25:22;;;;;;;11.20;1.67;;;;;;;27.66;40.11;102923.78;5044758;28;20166;-67